TimeCDT,TemperatureF,Dew PointF,Humidity,Sea Level PressureIn,VisibilityMPH,Wind Direction,Wind SpeedMPH,Gust SpeedMPH,PrecipitationIn,Events,Conditions,WindDirDegrees,DateUTC
12:53 AM,62.1,57.0,84,29.91,10.0,SSE,15.0,-,N/A,,Clear,160,2013-04-07 05:53:00
1:53 AM,63.0,57.0,81,29.92,10.0,SSE,11.5,-,N/A,,Mostly Cloudy,160,2013-04-07 06:53:00
2:53 AM,63.0,57.0,81,29.91,10.0,SSE,9.2,-,N/A,,Overcast,160,2013-04-07 07:53:00
3:53 AM,63.0,57.9,84,29.91,10.0,SSE,9.2,-,N/A,,Overcast,150,2013-04-07 08:53:00
4:53 AM,62.1,57.9,86,29.90,10.0,SSE,8.1,-,N/A,,Overcast,160,2013-04-07 09:53:00
5:29 AM,62.6,57.2,82,29.91,10.0,SSE,8.1,-,N/A,,Overcast,160,2013-04-07 10:29:00
5:53 AM,62.1,57.9,86,29.91,10.0,SSE,6.9,-,N/A,,Overcast,160,2013-04-07 10:53:00
6:53 AM,62.1,57.9,86,29.92,10.0,SE,4.6,-,N/A,,Overcast,140,2013-04-07 11:53:00
7:53 AM,62.1,59.0,90,29.94,10.0,ESE,4.6,-,N/A,,Overcast,120,2013-04-07 12:53:00
8:33 AM,62.6,59.0,88,29.95,10.0,SSE,5.8,-,N/A,,Overcast,150,2013-04-07 13:33:00
8:40 AM,62.6,59.0,88,29.95,10.0,SE,5.8,-,N/A,,Mostly Cloudy,140,2013-04-07 13:40:00
8:53 AM,64.9,60.1,84,29.95,10.0,SE,6.9,-,N/A,,Scattered Clouds,140,2013-04-07 13:53:00
9:53 AM,66.9,60.1,79,29.95,10.0,South,12.7,-,N/A,,Overcast,170,2013-04-07 14:53:00
10:28 AM,69.8,60.8,73,29.97,10.0,South,11.5,18.4,N/A,,Overcast,180,2013-04-07 15:28:00
10:53 AM,71.1,61.0,70,29.96,10.0,SSE,11.5,-,N/A,,Overcast,160,2013-04-07 15:53:00
11:53 AM,71.1,60.1,68,29.95,10.0,South,13.8,-,N/A,,Overcast,170,2013-04-07 16:53:00
12:53 PM,73.0,61.0,66,29.93,10.0,South,13.8,20.7,N/A,,Overcast,170,2013-04-07 17:53:00
1:53 PM,73.9,61.0,64,29.90,10.0,SE,18.4,24.2,N/A,,Overcast,140,2013-04-07 18:53:00
2:53 PM,75.9,61.0,60,29.86,10.0,SSE,12.7,20.7,N/A,,Overcast,160,2013-04-07 19:53:00
3:53 PM,79.0,60.1,52,29.83,10.0,SSE,19.6,29.9,N/A,,Overcast,160,2013-04-07 20:53:00
4:53 PM,78.1,60.1,54,29.81,10.0,SSE,16.1,-,N/A,,Mostly Cloudy,160,2013-04-07 21:53:00
5:53 PM,78.1,59.0,52,29.80,10.0,South,20.7,-,N/A,,Overcast,170,2013-04-07 22:53:00
6:53 PM,75.9,59.0,56,29.80,10.0,SSE,13.8,-,N/A,,Overcast,160,2013-04-07 23:53:00
7:53 PM,73.9,60.1,62,29.81,10.0,SSE,16.1,-,N/A,,Overcast,150,2013-04-08 00:53:00
8:53 PM,73.0,59.0,61,29.83,10.0,South,16.1,24.2,N/A,,Overcast,170,2013-04-08 01:53:00
9:53 PM,71.1,59.0,66,29.86,10.0,SSE,15.0,-,N/A,,Overcast,160,2013-04-08 02:53:00
10:53 PM,69.1,59.0,70,29.86,10.0,SSE,13.8,19.6,N/A,,Overcast,150,2013-04-08 03:53:00
11:53 PM,69.1,60.1,73,29.86,10.0,SSE,12.7,18.4,N/A,,Overcast,150,2013-04-08 04:53:00